sensor_id;sensor_type;location;lat;lon;timestamp;temperature;humidity
2867;DHT22;1441;48.886;8.728;2022-10-22T00:01:02;13.80;99.90
2867;DHT22;1441;48.886;8.728;2022-10-22T00:03:28;13.80;99.90
2867;DHT22;1441;48.886;8.728;2022-10-22T00:05:54;13.70;99.90
2867;DHT22;1441;48.886;8.728;2022-10-22T00:08:20;13.60;99.90
2867;DHT22;1441;48.886;8.728;2022-10-22T00:10:45;13.70;99.90
2867;DHT22;1441;48.886;8.728;2022-10-22T00:13:11;14.00;99.90
2867;DHT22;1441;48.886;8.728;2022-10-22T00:15:37;14.00;99.90
2867;DHT22;1441;48.886;8.728;2022-10-22T00:18:03;13.90;99.90
2867;DHT22;1441;48.886;8.728;2022-10-22T00:20:28;13.80;99.90
2867;DHT22;1441;48.886;8.728;2022-10-22T00:22:54;13.60;99.90
2867;DHT22;1441;48.886;8.728;2022-10-22T00:25:19;13.60;99.90
2867;DHT22;1441;48.886;8.728;2022-10-22T00:27:45;13.60;99.90
2867;DHT22;1441;48.886;8.728;2022-10-22T00:30:11;13.60;99.90
2867;DHT22;1441;48.886;8.728;2022-10-22T00:32:36;13.60;99.90
2867;DHT22;1441;48.886;8.728;2022-10-22T00:35:02;13.60;99.90
2867;DHT22;1441;48.886;8.728;2022-10-22T00:37:28;13.60;99.90
2867;DHT22;1441;48.886;8.728;2022-10-22T00:39:54;13.50;99.90
2867;DHT22;1441;48.886;8.728;2022-10-22T00:42:24;13.50;99.90
2867;DHT22;1441;48.886;8.728;2022-10-22T00:45:16;13.50;99.90
2867;DHT22;1441;48.886;8.728;2022-10-22T00:47:53;13.50;99.90
2867;DHT22;1441;48.886;8.728;2022-10-22T00:50:55;13.50;99.90
2867;DHT22;1441;48.886;8.728;2022-10-22T00:53:28;13.50;99.90
2867;DHT22;1441;48.886;8.728;2022-10-22T00:55:54;13.50;99.90
2867;DHT22;1441;48.886;8.728;2022-10-22T00:58:23;13.50;99.90
2867;DHT22;1441;48.886;8.728;2022-10-22T01:00:50;13.50;99.90
2867;DHT22;1441;48.886;8.728;2022-10-22T01:03:16;13.50;99.90
2867;DHT22;1441;48.886;8.728;2022-10-22T01:05:57;13.50;99.90
2867;DHT22;1441;48.886;8.728;2022-10-22T01:08:42;13.60;99.90
2867;DHT22;1441;48.886;8.728;2022-10-22T01:13:53;13.70;99.90
2867;DHT22;1441;48.886;8.728;2022-10-22T01:19:33;13.70;99.90
2867;DHT22;1441;48.886;8.728;2022-10-22T01:22:30;13.70;99.90
2867;DHT22;1441;48.886;8.728;2022-10-22T01:25:02;13.70;99.90
2867;DHT22;1441;48.886;8.728;2022-10-22T01:28:00;13.70;99.90
2867;DHT22;1441;48.886;8.728;2022-10-22T01:30:30;13.70;99.90
2867;DHT22;1441;48.886;8.728;2022-10-22T01:33:00;13.70;99.90
2867;DHT22;1441;48.886;8.728;2022-10-22T01:35:32;13.80;99.90
2867;DHT22;1441;48.886;8.728;2022-10-22T01:38:02;14.10;99.90
2867;DHT22;1441;48.886;8.728;2022-10-22T01:40:28;14.30;99.90
2867;DHT22;1441;48.886;8.728;2022-10-22T01:43:07;14.30;99.90
2867;DHT22;1441;48.886;8.728;2022-10-22T01:45:52;14.30;99.90
2867;DHT22;1441;48.886;8.728;2022-10-22T01:48:47;14.30;99.90
2867;DHT22;1441;48.886;8.728;2022-10-22T01:54:52;14.20;99.90
2867;DHT22;1441;48.886;8.728;2022-10-22T01:57:08;14.30;99.90
2867;DHT22;1441;48.886;8.728;2022-10-22T02:05:35;14.10;99.90
2867;DHT22;1441;48.886;8.728;2022-10-22T02:08:09;13.90;99.90
2867;DHT22;1441;48.886;8.728;2022-10-22T02:10:39;13.90;99.90
2867;DHT22;1441;48.886;8.728;2022-10-22T02:13:11;13.90;99.90
2867;DHT22;1441;48.886;8.728;2022-10-22T02:15:39;13.90;99.90
2867;DHT22;1441;48.886;8.728;2022-10-22T02:18:05;13.90;99.90
2867;DHT22;1441;48.886;8.728;2022-10-22T02:20:35;13.90;99.90
2867;DHT22;1441;48.886;8.728;2022-10-22T02:23:01;13.80;99.90
2867;DHT22;1441;48.886;8.728;2022-10-22T02:25:34;13.90;99.90
2867;DHT22;1441;48.886;8.728;2022-10-22T02:30:45;13.90;99.90
2867;DHT22;1441;48.886;8.728;2022-10-22T02:33:19;14.30;99.90
2867;DHT22;1441;48.886;8.728;2022-10-22T02:35:47;14.20;99.90
2867;DHT22;1441;48.886;8.728;2022-10-22T02:38:14;14.20;99.90
2867;DHT22;1441;48.886;8.728;2022-10-22T02:40:40;14.40;99.90
2867;DHT22;1441;48.886;8.728;2022-10-22T02:43:06;14.50;99.90
2867;DHT22;1441;48.886;8.728;2022-10-22T02:45:32;14.20;99.90
2867;DHT22;1441;48.886;8.728;2022-10-22T02:47:59;14.20;99.90
2867;DHT22;1441;48.886;8.728;2022-10-22T02:50:24;14.40;99.90
2867;DHT22;1441;48.886;8.728;2022-10-22T02:52:50;14.40;99.90
2867;DHT22;1441;48.886;8.728;2022-10-22T02:55:16;14.20;99.90
2867;DHT22;1441;48.886;8.728;2022-10-22T02:57:41;14.20;99.90
2867;DHT22;1441;48.886;8.728;2022-10-22T03:00:08;14.30;99.90
2867;DHT22;1441;48.886;8.728;2022-10-22T03:02:34;14.30;99.90
2867;DHT22;1441;48.886;8.728;2022-10-22T03:05:00;14.30;99.60
2867;DHT22;1441;48.886;8.728;2022-10-22T03:07:25;14.50;98.10
2867;DHT22;1441;48.886;8.728;2022-10-22T03:09:51;14.70;96.70
2867;DHT22;1441;48.886;8.728;2022-10-22T03:12:17;14.70;97.30
2867;DHT22;1441;48.886;8.728;2022-10-22T03:14:42;14.80;96.50
2867;DHT22;1441;48.886;8.728;2022-10-22T03:17:08;14.80;96.90
2867;DHT22;1441;48.886;8.728;2022-10-22T03:19:33;14.80;96.70
2867;DHT22;1441;48.886;8.728;2022-10-22T03:22:05;14.80;96.60
2867;DHT22;1441;48.886;8.728;2022-10-22T03:24:38;14.90;96.40
2867;DHT22;1441;48.886;8.728;2022-10-22T03:27:05;14.80;96.30
2867;DHT22;1441;48.886;8.728;2022-10-22T03:29:34;14.80;96.90
2867;DHT22;1441;48.886;8.728;2022-10-22T03:32:00;14.80;97.30
2867;DHT22;1441;48.886;8.728;2022-10-22T03:34:26;14.70;97.50
2867;DHT22;1441;48.886;8.728;2022-10-22T03:36:52;14.60;97.80
2867;DHT22;1441;48.886;8.728;2022-10-22T03:39:19;14.50;98.40
2867;DHT22;1441;48.886;8.728;2022-10-22T03:41:47;14.60;97.70
2867;DHT22;1441;48.886;8.728;2022-10-22T03:44:14;14.50;97.90
2867;DHT22;1441;48.886;8.728;2022-10-22T03:46:41;14.60;97.80
2867;DHT22;1441;48.886;8.728;2022-10-22T03:49:06;14.50;98.10
2867;DHT22;1441;48.886;8.728;2022-10-22T03:51:32;14.50;97.60
2867;DHT22;1441;48.886;8.728;2022-10-22T03:53:58;14.70;96.60
2867;DHT22;1441;48.886;8.728;2022-10-22T03:56:24;14.70;96.10
2867;DHT22;1441;48.886;8.728;2022-10-22T03:58:49;14.80;95.00
2867;DHT22;1441;48.886;8.728;2022-10-22T04:01:15;14.60;96.50
2867;DHT22;1441;48.886;8.728;2022-10-22T04:03:41;14.50;98.00
2867;DHT22;1441;48.886;8.728;2022-10-22T04:06:09;14.60;96.50
2867;DHT22;1441;48.886;8.728;2022-10-22T04:08:35;14.70;96.10
2867;DHT22;1441;48.886;8.728;2022-10-22T04:11:00;14.60;96.00
2867;DHT22;1441;48.886;8.728;2022-10-22T04:13:26;14.50;97.20
2867;DHT22;1441;48.886;8.728;2022-10-22T04:15:52;14.30;98.00
2867;DHT22;1441;48.886;8.728;2022-10-22T04:18:18;14.30;98.00
2867;DHT22;1441;48.886;8.728;2022-10-22T04:20:44;14.30;97.60
2867;DHT22;1441;48.886;8.728;2022-10-22T04:23:10;14.30;97.80
2867;DHT22;1441;48.886;8.728;2022-10-22T04:25:36;14.40;97.20
2867;DHT22;1441;48.886;8.728;2022-10-22T04:28:02;14.40;98.80
2867;DHT22;1441;48.886;8.728;2022-10-22T04:30:27;14.20;98.70
2867;DHT22;1441;48.886;8.728;2022-10-22T04:32:53;14.20;98.40
2867;DHT22;1441;48.886;8.728;2022-10-22T04:35:18;14.20;98.10
2867;DHT22;1441;48.886;8.728;2022-10-22T04:37:44;14.20;99.00
2867;DHT22;1441;48.886;8.728;2022-10-22T04:40:10;14.20;98.70
2867;DHT22;1441;48.886;8.728;2022-10-22T04:42:36;14.20;98.50
2867;DHT22;1441;48.886;8.728;2022-10-22T04:45:01;14.30;97.40
2867;DHT22;1441;48.886;8.728;2022-10-22T04:47:27;14.30;98.10
2867;DHT22;1441;48.886;8.728;2022-10-22T04:49:52;14.20;97.70
2867;DHT22;1441;48.886;8.728;2022-10-22T04:52:18;14.20;98.30
2867;DHT22;1441;48.886;8.728;2022-10-22T04:54:43;14.20;98.70
2867;DHT22;1441;48.886;8.728;2022-10-22T04:57:09;14.40;97.10
2867;DHT22;1441;48.886;8.728;2022-10-22T04:59:34;14.30;97.50
2867;DHT22;1441;48.886;8.728;2022-10-22T05:02:00;14.30;98.40
2867;DHT22;1441;48.886;8.728;2022-10-22T05:04:26;14.20;98.20
2867;DHT22;1441;48.886;8.728;2022-10-22T05:06:51;14.20;98.80
2867;DHT22;1441;48.886;8.728;2022-10-22T05:09:18;14.20;98.20
2867;DHT22;1441;48.886;8.728;2022-10-22T05:11:46;14.20;97.60
2867;DHT22;1441;48.886;8.728;2022-10-22T05:14:18;14.30;96.70
2867;DHT22;1441;48.886;8.728;2022-10-22T05:16:43;14.40;96.20
2867;DHT22;1441;48.886;8.728;2022-10-22T05:19:36;14.30;96.70
2867;DHT22;1441;48.886;8.728;2022-10-22T05:22:02;14.20;98.30
2867;DHT22;1441;48.886;8.728;2022-10-22T05:24:31;14.10;99.50
2867;DHT22;1441;48.886;8.728;2022-10-22T05:26:58;14.10;98.90
2867;DHT22;1441;48.886;8.728;2022-10-22T05:29:24;14.10;98.80
2867;DHT22;1441;48.886;8.728;2022-10-22T05:31:50;14.00;98.60
2867;DHT22;1441;48.886;8.728;2022-10-22T05:34:17;14.10;97.90
2867;DHT22;1441;48.886;8.728;2022-10-22T05:36:43;14.10;97.90
2867;DHT22;1441;48.886;8.728;2022-10-22T05:39:08;14.10;98.00
2867;DHT22;1441;48.886;8.728;2022-10-22T05:41:35;14.20;97.90
2867;DHT22;1441;48.886;8.728;2022-10-22T05:44:04;14.20;97.80
2867;DHT22;1441;48.886;8.728;2022-10-22T05:46:33;14.30;96.20
2867;DHT22;1441;48.886;8.728;2022-10-22T05:49:01;14.70;94.30
2867;DHT22;1441;48.886;8.728;2022-10-22T05:51:32;14.80;94.20
2867;DHT22;1441;48.886;8.728;2022-10-22T05:53:59;14.90;94.20
2867;DHT22;1441;48.886;8.728;2022-10-22T05:56:27;14.90;94.30
2867;DHT22;1441;48.886;8.728;2022-10-22T05:58:53;14.70;96.40
2867;DHT22;1441;48.886;8.728;2022-10-22T06:01:30;14.50;96.60
2867;DHT22;1441;48.886;8.728;2022-10-22T06:03:58;14.40;97.20
2867;DHT22;1441;48.886;8.728;2022-10-22T06:06:30;14.50;98.80
2867;DHT22;1441;48.886;8.728;2022-10-22T06:09:04;14.40;99.40
2867;DHT22;1441;48.886;8.728;2022-10-22T06:11:31;14.40;99.90
2867;DHT22;1441;48.886;8.728;2022-10-22T06:13:56;14.30;99.90
2867;DHT22;1441;48.886;8.728;2022-10-22T06:16:22;14.20;99.90
2867;DHT22;1441;48.886;8.728;2022-10-22T06:18:48;14.20;99.90
2867;DHT22;1441;48.886;8.728;2022-10-22T06:21:14;14.10;99.90
2867;DHT22;1441;48.886;8.728;2022-10-22T06:23:41;14.10;99.90
2867;DHT22;1441;48.886;8.728;2022-10-22T06:26:08;14.10;99.90
2867;DHT22;1441;48.886;8.728;2022-10-22T06:28:34;14.10;99.90
2867;DHT22;1441;48.886;8.728;2022-10-22T06:31:01;14.30;99.40
2867;DHT22;1441;48.886;8.728;2022-10-22T06:33:28;14.50;98.50
2867;DHT22;1441;48.886;8.728;2022-10-22T06:35:53;14.50;98.60
2867;DHT22;1441;48.886;8.728;2022-10-22T06:38:19;14.50;98.60
2867;DHT22;1441;48.886;8.728;2022-10-22T06:40:45;14.50;98.00
2867;DHT22;1441;48.886;8.728;2022-10-22T06:43:11;14.60;97.10
2867;DHT22;1441;48.886;8.728;2022-10-22T06:45:37;14.60;97.10
2867;DHT22;1441;48.886;8.728;2022-10-22T06:48:03;14.60;97.00
2867;DHT22;1441;48.886;8.728;2022-10-22T06:50:29;14.60;97.40
2867;DHT22;1441;48.886;8.728;2022-10-22T06:52:54;14.60;97.80
2867;DHT22;1441;48.886;8.728;2022-10-22T06:55:20;14.70;97.70
2867;DHT22;1441;48.886;8.728;2022-10-22T06:57:45;14.60;97.70
2867;DHT22;1441;48.886;8.728;2022-10-22T07:00:12;14.70;97.60
2867;DHT22;1441;48.886;8.728;2022-10-22T07:02:37;14.80;97.50
2867;DHT22;1441;48.886;8.728;2022-10-22T07:05:03;14.90;96.60
2867;DHT22;1441;48.886;8.728;2022-10-22T07:07:29;14.80;96.90
2867;DHT22;1441;48.886;8.728;2022-10-22T07:09:54;14.80;97.50
2867;DHT22;1441;48.886;8.728;2022-10-22T07:12:20;15.00;97.40
2867;DHT22;1441;48.886;8.728;2022-10-22T07:14:45;15.20;96.90
2867;DHT22;1441;48.886;8.728;2022-10-22T07:17:11;15.30;96.10
2867;DHT22;1441;48.886;8.728;2022-10-22T07:19:36;15.30;96.20
2867;DHT22;1441;48.886;8.728;2022-10-22T07:22:02;15.30;96.30
2867;DHT22;1441;48.886;8.728;2022-10-22T07:24:28;15.30;96.30
2867;DHT22;1441;48.886;8.728;2022-10-22T07:26:53;15.30;96.30
2867;DHT22;1441;48.886;8.728;2022-10-22T07:29:19;15.40;95.90
2867;DHT22;1441;48.886;8.728;2022-10-22T07:31:45;15.70;95.20
2867;DHT22;1441;48.886;8.728;2022-10-22T07:34:10;15.90;93.90
2867;DHT22;1441;48.886;8.728;2022-10-22T07:36:36;16.10;93.30
2867;DHT22;1441;48.886;8.728;2022-10-22T07:39:02;16.40;92.60
2867;DHT22;1441;48.886;8.728;2022-10-22T07:41:29;16.30;93.70
2867;DHT22;1441;48.886;8.728;2022-10-22T07:43:56;16.00;94.10
2867;DHT22;1441;48.886;8.728;2022-10-22T07:46:22;16.20;93.40
2867;DHT22;1441;48.886;8.728;2022-10-22T07:48:48;16.60;91.90
2867;DHT22;1441;48.886;8.728;2022-10-22T07:51:14;16.40;92.80
2867;DHT22;1441;48.886;8.728;2022-10-22T07:53:40;16.20;93.30
2867;DHT22;1441;48.886;8.728;2022-10-22T07:56:06;16.20;93.20
2867;DHT22;1441;48.886;8.728;2022-10-22T07:58:32;16.30;92.90
2867;DHT22;1441;48.886;8.728;2022-10-22T08:01:01;16.10;94.00
2867;DHT22;1441;48.886;8.728;2022-10-22T08:03:27;15.80;96.10
2867;DHT22;1441;48.886;8.728;2022-10-22T08:05:53;15.90;95.60
2867;DHT22;1441;48.886;8.728;2022-10-22T08:08:20;15.70;96.50
2867;DHT22;1441;48.886;8.728;2022-10-22T08:10:47;15.70;97.50
2867;DHT22;1441;48.886;8.728;2022-10-22T08:13:13;15.70;97.70
2867;DHT22;1441;48.886;8.728;2022-10-22T08:15:40;16.00;96.50
2867;DHT22;1441;48.886;8.728;2022-10-22T08:18:05;16.20;96.40
2867;DHT22;1441;48.886;8.728;2022-10-22T08:20:31;16.20;96.50
2867;DHT22;1441;48.886;8.728;2022-10-22T08:22:57;16.30;96.50
2867;DHT22;1441;48.886;8.728;2022-10-22T08:25:23;16.50;96.50
2867;DHT22;1441;48.886;8.728;2022-10-22T08:27:49;17.10;93.80
2867;DHT22;1441;48.886;8.728;2022-10-22T08:30:15;17.70;91.40
2867;DHT22;1441;48.886;8.728;2022-10-22T08:32:41;17.80;90.60
2867;DHT22;1441;48.886;8.728;2022-10-22T08:35:07;17.50;91.50
2867;DHT22;1441;48.886;8.728;2022-10-22T08:37:33;17.80;92.20
2867;DHT22;1441;48.886;8.728;2022-10-22T08:39:59;18.10;91.90
2867;DHT22;1441;48.886;8.728;2022-10-22T08:47:47;17.70;94.10
2867;DHT22;1441;48.886;8.728;2022-10-22T08:50:23;17.70;93.40
2867;DHT22;1441;48.886;8.728;2022-10-22T08:52:55;17.60;94.10
2867;DHT22;1441;48.886;8.728;2022-10-22T08:55:24;17.50;94.70
2867;DHT22;1441;48.886;8.728;2022-10-22T09:00:43;17.50;95.30
2867;DHT22;1441;48.886;8.728;2022-10-22T09:06:11;17.50;95.40
2867;DHT22;1441;48.886;8.728;2022-10-22T09:08:38;17.60;95.00
2867;DHT22;1441;48.886;8.728;2022-10-22T09:11:25;17.70;93.70
2867;DHT22;1441;48.886;8.728;2022-10-22T09:13:52;17.80;94.20
2867;DHT22;1441;48.886;8.728;2022-10-22T09:27:41;18.40;92.30
2867;DHT22;1441;48.886;8.728;2022-10-22T09:30:21;18.40;91.90
2867;DHT22;1441;48.886;8.728;2022-10-22T09:33:25;18.50;91.30
2867;DHT22;1441;48.886;8.728;2022-10-22T09:38:20;18.40;91.40
2867;DHT22;1441;48.886;8.728;2022-10-22T09:40:51;18.40;90.30
2867;DHT22;1441;48.886;8.728;2022-10-22T09:43:17;18.30;91.80
2867;DHT22;1441;48.886;8.728;2022-10-22T09:45:44;18.10;92.60
2867;DHT22;1441;48.886;8.728;2022-10-22T09:50:48;17.90;92.50
2867;DHT22;1441;48.886;8.728;2022-10-22T09:53:21;17.90;92.70
2867;DHT22;1441;48.886;8.728;2022-10-22T09:55:58;17.90;93.00
2867;DHT22;1441;48.886;8.728;2022-10-22T09:58:25;17.80;93.00
2867;DHT22;1441;48.886;8.728;2022-10-22T10:01:00;17.90;92.00
2867;DHT22;1441;48.886;8.728;2022-10-22T10:03:29;17.90;92.60
2867;DHT22;1441;48.886;8.728;2022-10-22T10:05:57;17.80;92.70
2867;DHT22;1441;48.886;8.728;2022-10-22T10:08:24;17.70;92.80
2867;DHT22;1441;48.886;8.728;2022-10-22T10:10:57;17.80;92.70
2867;DHT22;1441;48.886;8.728;2022-10-22T10:13:45;17.80;92.10
2867;DHT22;1441;48.886;8.728;2022-10-22T10:22:10;18.10;91.90
2867;DHT22;1441;48.886;8.728;2022-10-22T10:24:52;18.00;92.40
2867;DHT22;1441;48.886;8.728;2022-10-22T10:30:04;17.90;92.70
2867;DHT22;1441;48.886;8.728;2022-10-22T10:33:10;17.90;91.80
2867;DHT22;1441;48.886;8.728;2022-10-22T10:36:01;18.00;91.60
2867;DHT22;1441;48.886;8.728;2022-10-22T10:44:47;18.10;91.90
2867;DHT22;1441;48.886;8.728;2022-10-22T10:47:33;18.10;92.80
2867;DHT22;1441;48.886;8.728;2022-10-22T10:50:30;18.30;90.00
2867;DHT22;1441;48.886;8.728;2022-10-22T10:53:16;18.50;87.90
2867;DHT22;1441;48.886;8.728;2022-10-22T10:58:41;18.50;90.20
2867;DHT22;1441;48.886;8.728;2022-10-22T11:01:36;18.40;88.90
2867;DHT22;1441;48.886;8.728;2022-10-22T11:06:46;18.50;88.60
2867;DHT22;1441;48.886;8.728;2022-10-22T11:09:26;18.40;89.40
2867;DHT22;1441;48.886;8.728;2022-10-22T11:11:58;18.40;89.80
2867;DHT22;1441;48.886;8.728;2022-10-22T11:14:34;18.40;90.00
2867;DHT22;1441;48.886;8.728;2022-10-22T11:17:09;18.30;89.00
2867;DHT22;1441;48.886;8.728;2022-10-22T11:20:01;18.40;87.60
2867;DHT22;1441;48.886;8.728;2022-10-22T11:22:39;18.50;88.20
2867;DHT22;1441;48.886;8.728;2022-10-22T11:25:16;18.70;86.90
2867;DHT22;1441;48.886;8.728;2022-10-22T11:30:19;18.70;87.00
2867;DHT22;1441;48.886;8.728;2022-10-22T11:32:55;18.60;86.20
2867;DHT22;1441;48.886;8.728;2022-10-22T11:35:33;18.60;85.90
2867;DHT22;1441;48.886;8.728;2022-10-22T11:38:02;18.80;86.00
2867;DHT22;1441;48.886;8.728;2022-10-22T11:40:32;18.90;85.70
2867;DHT22;1441;48.886;8.728;2022-10-22T11:43:09;18.70;86.40
2867;DHT22;1441;48.886;8.728;2022-10-22T11:45:39;18.70;85.30
2867;DHT22;1441;48.886;8.728;2022-10-22T11:48:16;18.60;86.10
2867;DHT22;1441;48.886;8.728;2022-10-22T11:51:01;18.70;84.50
2867;DHT22;1441;48.886;8.728;2022-10-22T11:53:34;18.90;85.10
2867;DHT22;1441;48.886;8.728;2022-10-22T12:03:41;19.00;84.30
2867;DHT22;1441;48.886;8.728;2022-10-22T12:11:16;19.00;83.70
2867;DHT22;1441;48.886;8.728;2022-10-22T12:17:06;19.20;81.80
2867;DHT22;1441;48.886;8.728;2022-10-22T12:22:16;19.40;81.60
2867;DHT22;1441;48.886;8.728;2022-10-22T12:24:46;19.60;81.60
2867;DHT22;1441;48.886;8.728;2022-10-22T12:27:20;19.70;81.80
2867;DHT22;1441;48.886;8.728;2022-10-22T12:29:46;19.90;80.40
2867;DHT22;1441;48.886;8.728;2022-10-22T12:32:15;19.90;81.80
2867;DHT22;1441;48.886;8.728;2022-10-22T12:34:46;19.90;81.00
2867;DHT22;1441;48.886;8.728;2022-10-22T12:37:13;20.00;80.20
2867;DHT22;1441;48.886;8.728;2022-10-22T12:39:40;20.20;77.40
2867;DHT22;1441;48.886;8.728;2022-10-22T12:42:11;20.20;78.40
2867;DHT22;1441;48.886;8.728;2022-10-22T12:44:37;20.30;78.40
2867;DHT22;1441;48.886;8.728;2022-10-22T12:47:02;20.50;77.60
2867;DHT22;1441;48.886;8.728;2022-10-22T12:49:39;20.50;78.10
2867;DHT22;1441;48.886;8.728;2022-10-22T12:52:07;20.60;77.50
2867;DHT22;1441;48.886;8.728;2022-10-22T12:54:37;20.50;77.20
2867;DHT22;1441;48.886;8.728;2022-10-22T12:57:03;20.70;75.00
2867;DHT22;1441;48.886;8.728;2022-10-22T12:59:39;20.90;73.50
2867;DHT22;1441;48.886;8.728;2022-10-22T13:02:26;21.00;76.10
2867;DHT22;1441;48.886;8.728;2022-10-22T13:07:48;20.90;75.50
2867;DHT22;1441;48.886;8.728;2022-10-22T13:10:24;21.00;75.50
2867;DHT22;1441;48.886;8.728;2022-10-22T13:12:55;21.20;75.70
2867;DHT22;1441;48.886;8.728;2022-10-22T13:18:25;21.40;74.10
2867;DHT22;1441;48.886;8.728;2022-10-22T13:20:56;21.50;75.50
2867;DHT22;1441;48.886;8.728;2022-10-22T13:23:25;21.50;75.90
2867;DHT22;1441;48.886;8.728;2022-10-22T13:26:14;21.60;72.60
2867;DHT22;1441;48.886;8.728;2022-10-22T13:28:41;21.70;73.20
2867;DHT22;1441;48.886;8.728;2022-10-22T13:31:16;21.70;73.40
2867;DHT22;1441;48.886;8.728;2022-10-22T13:33:44;21.70;72.20
2867;DHT22;1441;48.886;8.728;2022-10-22T13:36:15;21.70;74.50
2867;DHT22;1441;48.886;8.728;2022-10-22T13:38:41;21.60;73.90
2867;DHT22;1441;48.886;8.728;2022-10-22T13:43:49;21.90;73.90
2867;DHT22;1441;48.886;8.728;2022-10-22T13:46:16;21.80;73.10
2867;DHT22;1441;48.886;8.728;2022-10-22T13:48:44;21.80;72.80
2867;DHT22;1441;48.886;8.728;2022-10-22T13:51:16;21.90;72.10
2867;DHT22;1441;48.886;8.728;2022-10-22T13:53:44;21.90;73.60
2867;DHT22;1441;48.886;8.728;2022-10-22T13:56:15;21.90;73.80
2867;DHT22;1441;48.886;8.728;2022-10-22T13:58:45;21.90;72.40
2867;DHT22;1441;48.886;8.728;2022-10-22T14:01:21;21.90;72.00
2867;DHT22;1441;48.886;8.728;2022-10-22T14:03:49;21.90;73.90
2867;DHT22;1441;48.886;8.728;2022-10-22T14:06:17;21.90;72.30
2867;DHT22;1441;48.886;8.728;2022-10-22T14:08:45;21.90;72.70
2867;DHT22;1441;48.886;8.728;2022-10-22T14:11:11;22.00;71.20
2867;DHT22;1441;48.886;8.728;2022-10-22T14:13:37;21.90;72.40
2867;DHT22;1441;48.886;8.728;2022-10-22T14:16:05;21.80;72.50
2867;DHT22;1441;48.886;8.728;2022-10-22T14:18:32;21.80;72.50
2867;DHT22;1441;48.886;8.728;2022-10-22T14:21:00;21.80;72.40
2867;DHT22;1441;48.886;8.728;2022-10-22T14:23:30;21.80;72.80
2867;DHT22;1441;48.886;8.728;2022-10-22T14:25:58;21.80;71.80
2867;DHT22;1441;48.886;8.728;2022-10-22T14:28:23;21.80;72.30
2867;DHT22;1441;48.886;8.728;2022-10-22T14:30:49;21.70;73.50
2867;DHT22;1441;48.886;8.728;2022-10-22T14:33:18;21.70;73.60
2867;DHT22;1441;48.886;8.728;2022-10-22T14:35:44;21.70;72.00
2867;DHT22;1441;48.886;8.728;2022-10-22T14:38:10;21.70;72.60
2867;DHT22;1441;48.886;8.728;2022-10-22T14:40:36;21.60;72.90
2867;DHT22;1441;48.886;8.728;2022-10-22T14:43:06;21.60;71.40
2867;DHT22;1441;48.886;8.728;2022-10-22T14:45:31;21.60;73.60
2867;DHT22;1441;48.886;8.728;2022-10-22T14:47:57;21.60;74.60
2867;DHT22;1441;48.886;8.728;2022-10-22T14:50:23;21.50;75.90
2867;DHT22;1441;48.886;8.728;2022-10-22T14:52:50;21.40;75.10
2867;DHT22;1441;48.886;8.728;2022-10-22T14:55:17;21.40;75.80
2867;DHT22;1441;48.886;8.728;2022-10-22T14:58:20;21.30;75.50
2867;DHT22;1441;48.886;8.728;2022-10-22T15:00:46;21.20;74.90
2867;DHT22;1441;48.886;8.728;2022-10-22T15:03:11;21.20;73.50
2867;DHT22;1441;48.886;8.728;2022-10-22T15:05:41;21.10;74.50
2867;DHT22;1441;48.886;8.728;2022-10-22T15:08:09;21.20;71.70
2867;DHT22;1441;48.886;8.728;2022-10-22T15:10:34;21.40;70.10
2867;DHT22;1441;48.886;8.728;2022-10-22T15:13:00;21.20;72.60
2867;DHT22;1441;48.886;8.728;2022-10-22T15:15:25;20.90;74.40
2867;DHT22;1441;48.886;8.728;2022-10-22T15:17:51;20.60;75.00
2867;DHT22;1441;48.886;8.728;2022-10-22T15:20:16;20.50;76.80
2867;DHT22;1441;48.886;8.728;2022-10-22T15:22:42;20.40;76.10
2867;DHT22;1441;48.886;8.728;2022-10-22T15:25:08;20.30;76.80
2867;DHT22;1441;48.886;8.728;2022-10-22T15:27:34;20.20;76.80
2867;DHT22;1441;48.886;8.728;2022-10-22T15:30:00;20.10;77.80
2867;DHT22;1441;48.886;8.728;2022-10-22T15:32:26;20.10;78.20
2867;DHT22;1441;48.886;8.728;2022-10-22T15:34:54;19.90;80.60
2867;DHT22;1441;48.886;8.728;2022-10-22T15:37:20;19.80;80.80
2867;DHT22;1441;48.886;8.728;2022-10-22T15:39:46;19.80;79.90
2867;DHT22;1441;48.886;8.728;2022-10-22T15:42:12;19.70;81.80
2867;DHT22;1441;48.886;8.728;2022-10-22T15:44:39;19.50;82.80
2867;DHT22;1441;48.886;8.728;2022-10-22T15:47:06;19.90;81.80
2867;DHT22;1441;48.886;8.728;2022-10-22T15:49:33;20.00;81.50
2867;DHT22;1441;48.886;8.728;2022-10-22T15:51:59;19.90;82.50
2867;DHT22;1441;48.886;8.728;2022-10-22T15:54:27;19.70;83.10
2867;DHT22;1441;48.886;8.728;2022-10-22T15:56:54;19.50;84.10
2867;DHT22;1441;48.886;8.728;2022-10-22T15:59:20;19.20;85.10
2867;DHT22;1441;48.886;8.728;2022-10-22T16:01:46;19.00;86.20
2867;DHT22;1441;48.886;8.728;2022-10-22T16:04:11;19.00;85.60
2867;DHT22;1441;48.886;8.728;2022-10-22T16:06:39;18.90;86.50
2867;DHT22;1441;48.886;8.728;2022-10-22T16:09:08;18.60;87.20
2867;DHT22;1441;48.886;8.728;2022-10-22T16:11:34;18.40;88.00
2867;DHT22;1441;48.886;8.728;2022-10-22T16:14:00;18.30;87.70
2867;DHT22;1441;48.886;8.728;2022-10-22T16:16:29;18.10;87.80
2867;DHT22;1441;48.886;8.728;2022-10-22T16:18:55;17.90;87.80
2867;DHT22;1441;48.886;8.728;2022-10-22T16:21:22;17.80;88.30
2867;DHT22;1441;48.886;8.728;2022-10-22T16:23:48;17.80;88.90
2867;DHT22;1441;48.886;8.728;2022-10-22T16:26:14;17.70;89.10
2867;DHT22;1441;48.886;8.728;2022-10-22T16:28:41;17.60;89.50
2867;DHT22;1441;48.886;8.728;2022-10-22T16:31:09;17.50;89.30
2867;DHT22;1441;48.886;8.728;2022-10-22T16:33:36;17.30;89.70
2867;DHT22;1441;48.886;8.728;2022-10-22T16:36:04;17.20;89.80
2867;DHT22;1441;48.886;8.728;2022-10-22T16:38:30;17.10;90.50
2867;DHT22;1441;48.886;8.728;2022-10-22T16:43:31;16.90;90.10
2867;DHT22;1441;48.886;8.728;2022-10-22T16:45:57;16.90;89.90
2867;DHT22;1441;48.886;8.728;2022-10-22T16:48:22;16.90;89.30
2867;DHT22;1441;48.886;8.728;2022-10-22T16:50:48;17.00;89.40
2867;DHT22;1441;48.886;8.728;2022-10-22T16:53:14;17.00;89.20
2867;DHT22;1441;48.886;8.728;2022-10-22T16:55:39;17.00;88.90
2867;DHT22;1441;48.886;8.728;2022-10-22T16:58:05;16.90;88.60
2867;DHT22;1441;48.886;8.728;2022-10-22T17:00:32;16.70;89.70
2867;DHT22;1441;48.886;8.728;2022-10-22T17:02:58;16.80;88.50
2867;DHT22;1441;48.886;8.728;2022-10-22T17:05:23;16.90;88.00
2867;DHT22;1441;48.886;8.728;2022-10-22T17:07:49;17.00;87.80
2867;DHT22;1441;48.886;8.728;2022-10-22T17:10:16;17.00;87.70
2867;DHT22;1441;48.886;8.728;2022-10-22T17:12:44;16.80;89.10
2867;DHT22;1441;48.886;8.728;2022-10-22T17:15:10;16.90;88.30
2867;DHT22;1441;48.886;8.728;2022-10-22T17:17:36;16.90;87.50
2867;DHT22;1441;48.886;8.728;2022-10-22T17:20:02;16.80;87.70
2867;DHT22;1441;48.886;8.728;2022-10-22T17:22:28;16.80;87.80
2867;DHT22;1441;48.886;8.728;2022-10-22T17:27:53;16.90;87.30
2867;DHT22;1441;48.886;8.728;2022-10-22T17:30:19;16.90;86.90
2867;DHT22;1441;48.886;8.728;2022-10-22T17:32:45;16.80;87.00
2867;DHT22;1441;48.886;8.728;2022-10-22T17:35:13;16.90;87.00
2867;DHT22;1441;48.886;8.728;2022-10-22T17:37:39;16.80;87.20
2867;DHT22;1441;48.886;8.728;2022-10-22T17:40:05;16.80;87.20
2867;DHT22;1441;48.886;8.728;2022-10-22T17:42:30;16.70;87.50
2867;DHT22;1441;48.886;8.728;2022-10-22T17:44:56;16.70;87.40
2867;DHT22;1441;48.886;8.728;2022-10-22T17:47:22;16.70;87.50
2867;DHT22;1441;48.886;8.728;2022-10-22T17:49:48;16.60;87.60
2867;DHT22;1441;48.886;8.728;2022-10-22T17:52:14;16.60;87.70
2867;DHT22;1441;48.886;8.728;2022-10-22T17:54:40;16.60;87.80